Aldbourne, United Kingdom
Current Conditions -  °F | °C
As of 4:03 PM on Thursday 30 Oct 2014 (Local Time) from EGVA Reporting Station
Overcast Overcast  
Wind Chill: 63°   Ceiling: 5000
Heat Index: 63°   Visibility: 6mi
Dew Point: 59°   Wind: 7mph
Humidity: 88%   Direction: 180°S
Pressure: 30.03"   Gusts: NA
Location:  51.48°N, 1.62°W
Report Text: EGVA 301603Z AUTO 18006KT 9999 SCT017 OVC050 17/15 A3003 RMK AO2
Loading
Personal Weather Stations






























Interactive Weather Map
Tropical Storm Tracking
New forecast layout! Learn more

10-Day Weather Forecast

Advertisements
Track Severe Weather on mobile